Header for Extended Forecast Station List Page

Search by: ID | Name | Date | Parm | Value | Avg | % Avg
Sort by: ID | Name | Date | Parm | Value | Avg | % Avg

Enter search or view all records.

Click on id for station plot
#IDNameDateParmValueAvg% Avg
0BULO3BULLY CREEK-BULLY CREEK DAM05-10-2021INFLOW (KAF)M0M
1MYKO3MCKAY CREEK-NEAR PILOT ROCK05-10-2021DISCHARGE (KAF)4594
2WRMO3MALHEUR-WARM SPRINGS DAM05-10-2021INFLOW (KAF)51049
3UMAO3UMATILLA-NEAR UMATILLA05-10-2021DISCHARGE (KAF)2817166
4BERO3MALHEUR-AGENCY VALLEY DAM05-10-2021INFLOW (KAF)121961
5RIDI1WILLOW CREEK-RIRIE DAM05-10-2021INFLOW (KAF)82236
6GIBO3UMATILLA-NEAR GIBBON05-10-2021DISCHARGE (KAF)3733111
7TCHW1WALLA WALLA-NEAR TOUCHET05-10-2021DISCHARGE (KAF)284267
8PIHI1PORTNEUF-AT POCATELLO05-10-2021DISCHARGE (KAF)144532
9PDTO3UMATILLA-AT PENDLETON05-10-2021DISCHARGE (KAF)6152117
10LWRI1LITTLE WOOD-LITTLE WOOD DAM05-10-2021INFLOW (KAF)65510
11TNAW1TEANAWAY-BELOW FORKS05-10-2021DISCHARGE (KAF)7059118
12DLGM8CLARK FORK-AT DEER LODGE05-10-2021DISCHARGE (KAF)466471
13SATI1ST MARIES-NEAR SANTA05-10-2021DISCHARGE (KAF)356752
14KADW1KACHESS-KACHESS DAM05-10-2021INFLOW (KAF)7571105
15KEDW1YAKIMA-KEECHELUS LAKE05-10-2021INFLOW (KAF)8879112
16EASW1YAKIMA-AT EASTON05-10-2021DISCHARGE (KAF)10089112
17BUDW1BUMPING-BUMPING LAKE DAM05-10-2021INFLOW (KAF)879493
18DEDI1DEADWOOD-NEAR LOWMAN05-10-2021INFLOW (KAF)5411348
19HOTI1BRUNEAU-NEAR HOT SPRINGS05-10-2021DISCHARGE (KAF)2012516
20OWYO3OWYHEE-OWYHEE DAM05-10-2021INFLOW (KAF)4213132
21HODO3HOOD-NEAR TUCKER BRIDGE05-10-2021DISCHARGE (KAF)12314983
22HWRI1BIG LOST-AT HOWELL RANCH NEAR CHILLY05-10-2021DISCHARGE (KAF)1815511
23MACI1BIG LOST-MACKAY RESERVOIR NEAR MACKAY05-10-2021INFLOW (KAF)1715511
24MAGI1BIG WOOD-MAGIC DAM05-10-2021INFLOW (KAF)2515816
25RILW1TIETON-RIMROCK LAKE NEAR RIMROCK05-10-2021INFLOW (KAF)173166104
26MILI1SNAKE-AT MILNER05-10-2021DISCHARGE (KAF)14316786
27STRM8ST. REGIS-NEAR ST. REGIS05-10-2021DISCHARGE (KAF)12517372
28ARDW1ENTIAT-NEAR ARDENVOIR05-10-2021DISCHARGE (KAF)196179110
29IPDI1HENRYS FORK-ISLAND PARK DAM05-10-2021INFLOW (KAF)12420162
30HALI1BIG WOOD-AT HAILEY05-10-2021DISCHARGE (KAF)6720633
31WSRI1WEISER-NEAR WEISER05-10-2021DISCHARGE (KAF)12321457
32RCCM8ROCK CREEK-NEAR CLINTON05-10-2021DISCHARGE (KAF)23023797
33UNDW1WHITE SALMON-NEAR UNDERWOOD05-10-2021DISCHARGE (KAF)19324778
34CHEI1FALL RIVER-NEAR CHESTER05-10-2021DISCHARGE (KAF)15426558
35CLFW1NACHES-NEAR CLIFFDEL05-10-2021DISCHARGE (KAF)283279101
36MONO3NF JOHN DAY-AT MONUMENT05-10-2021DISCHARGE (KAF)13428847
37CLUW1CLE ELUM-CLE ELUM LAKE05-10-2021INFLOW (KAF)338303112
38PARW1YAKIMA-NEAR PARKER05-10-2021DISCHARGE (KAF)26231284
39PARI1BOISE-NEAR PARMA05-10-2021DISCHARGE (KAF)23033070
40TEAI1TETON-NEAR ST. ANTHONY05-10-2021DISCHARGE (KAF)22933568
41PITW1KLICKITAT-NEAR PITT05-10-2021DISCHARGE (KAF)29835684
42CSDI1NF PAYETTE-CASCADE DAM05-10-2021INFLOW (KAF)19736554
43ARAI1SF BOISE-ANDERSON RANCH DAM05-10-2021INFLOW (KAF)12837834
44BIGI1BOISE-AT GLENWOOD BRIDGE05-10-2021DISCHARGE (KAF)26538070
45SERO3JOHN DAY-AT SERVICE CK05-10-2021DISCHARGE (KAF)19540149
46NACW1NACHES-NEAR NACHES05-10-2021DISCHARGE (KAF)39840299
47ANTI1HENRYS FORK-AT ST. ANTHONY05-10-2021DISCHARGE (KAF)33254161
48PRTI1PRIEST-NEAR PRIEST RIVER05-10-2021DISCHARGE (KAF)30658952
49REXI1HENRYS FORK-AT REXBURG05-10-2021DISCHARGE (KAF)28762846
50KIOW1YAKIMA-AT KIONA05-10-2021DISCHARGE (KAF)55365185
51BONM8BLACKFOOT-NEAR BONNER05-10-2021DISCHARGE (KAF)59269585
52JLKW4SNAKE-JACKSON LAKE AT DAM05-10-2021INFLOW (KAF)42573058
53PATW1METHOW-NEAR PATEROS05-10-2021DISCHARGE (KAF)748737102
54TRYO3GRANDE RONDE-TROY05-10-2021DISCHARGE (KAF)60981275
55UMTW1YAKIMA-AT UMTANUM05-10-2021DISCHARGE (KAF)79881598
56CHDW1CHELAN-LAKE CHELAN DAM05-10-2021INFLOW (KAF)1010906112
57EMMI1PAYETTE-NEAR EMMETT05-10-2021DISCHARGE (KAF)45696847
58BITM8BITTERROOT-NEAR MISSOULA05-10-2021DISCHARGE (KAF)844106379
59MODO3DESCHUTES-AT MOODY NR BIGGS05-10-2021DISCHARGE (KAF)1080119590
60PESW1WENATCHEE-AT PESHASTIN05-10-2021DISCHARGE (KAF)1176120797
61ABOM8CLARK FORK-ABOVE MISSOULA05-10-2021DISCHARGE (KAF)1051122985
62TONW1OKANOGAN-NEAR TONASKET05-10-2021DISCHARGE (KAF)1286129999
63LAUW1KETTLE-AT LAURIER05-10-2021DISCHARGE (KAF)862134864
64WGCM8MF FLATHEAD-NEAR WEST GLACIER05-10-2021DISCHARGE (KAF)1155137984
65BFTI1SNAKE-NEAR BLACKFOOT05-10-2021DISCHARGE (KAF)795138857
66FCFM8NF FLATHEAD-NEAR COLUMBIA FALLS05-10-2021DISCHARGE (KAF)944142666
67COEI1COEUR D ALENE-COEUR D ALENE LAKE05-10-2021INFLOW (KAF)962144866
68SNAI1SNAKE-AT BLACKFOOT05-10-2021DISCHARGE (KAF)839151156
69HHWM8SF FLATHEAD-HUNGRY HORSE DAM05-10-2021INFLOW (KAF)1364159985
70JKSW4SNAKE-NEAR JACKSON05-10-2021DISCHARGE (KAF)1065168563
71DWRI1NF CLEARWATER-DWORSHAK DAM05-10-2021INFLOW (KAF)1344184273
72LLKW1SPOKANE-AT LONGLAKE05-10-2021INFLOW (KAF)1134193059
73AFRI1SNAKE-AMERICAN FALLS RESERVOIR05-10-2021INFLOW (KAF)1306200465
74SHYI1SNAKE-NEAR SHELLEY05-10-2021DISCHARGE (KAF)1442204970
75SWAI1SNAKE-BELOW SWAN FALLS05-10-2021DISCHARGE (KAF)1504206573
76ALPW4SNAKE-NEAR ALPINE05-10-2021DISCHARGE (KAF)1265211660
77BELM8CLARK FORK-BELOW MISSOULA05-10-2021DISCHARGE (KAF)1895232681
78SIFI1SNAKE-AB EAGLE ROCK NR IDAHO FALLS05-10-2021DISCHARGE (KAF)1612233069
79PLDI1SF SNAKE-PALISADES DAM05-10-2021INFLOW (KAF)1715293658
80SRGM8CLARK FORK-AT ST REGIS05-10-2021DISCHARGE (KAF)2367306177
81HEII1SNAKE-NEAR HEISE05-10-2021DISCHARGE (KAF)2785307491
82ORFI1CLEARWATER-AT OROFINO05-10-2021DISCHARGE (KAF)2406341171
83CFMM8FLATHEAD-AT COLUMBIA FALLS05-10-2021DISCHARGE (KAF)3076358786
84WEII1SNAKE-AT WEISER05-10-2021DISCHARGE (KAF)2460382764
85BRNI1SNAKE-BROWNLEE DAM05-10-2021INFLOW (KAF)2656406865
86KERM8FLATHEAD-SELI’Š KSANKA QLISPE’ DAM05-10-2021INFLOW (KAF)3455446377
87LEOI1KOOTENAI-AT LEONIA05-10-2021DISCHARGE (KAF)3014504160
88SPDI1CLEARWATER-AT SPALDING05-10-2021DISCHARGE (KAF)3955504678
89WHBI1SALMON-AT WHITEBIRD05-10-2021DISCHARGE (KAF)2520506450
90LYDM8KOOTENAI-LIBBY DAM05-10-2021INFLOW (KAF)4376562678
91NOXM8CLARK FORK-NOXON RAPIDS DAM05-10-2021INFLOW (KAF)5784761676
92CABI1CLARK FORK-CABINET GORGE DAM05-10-2021INFLOW (KAF)6359810079
93ALFW1PEND OREILLE-ALBENI FALLS DAM05-10-2021INFLOW (KAF)6895920775
94ANAW1SNAKE-NEAR ANATONE05-10-2021DISCHARGE (KAF)57421055454
95IHDW1SNAKE-ICE HARBOR DAM05-10-2021INFLOW (KAF)97551559263
96LGDW1SNAKE-LOWER GRANITE DAM05-10-2021INFLOW (KAF)96961560662
97LGSW1SNAKE-LITTLE GOOSE DAM05-10-2021INFLOW (KAF)96961564562
98LMNW1SNAKE-LOWER MONUMENTAL DAM05-10-2021INFLOW (KAF)97481567562
99CHJW1COLUMBIA-CHIEF JOSEPH DAM05-10-2021INFLOW (KAF)253463056783
100WELW1COLUMBIA-WELLS DAM05-10-2021INFLOW (KAF)274063298483
101RRHW1COLUMBIA-ROCKY REACH DAM05-10-2021INFLOW (KAF)283483362584
102WANW1COLUMBIA-WANAPUM DAM05-10-2021INFLOW (KAF)295444044873
103GCDW1COLUMBIA-GRAND COULEE DAM05-10-2021INFLOW (KAF)271754083567
104PRWW1COLUMBIA-PRIEST RAPIDS DAM05-10-2021INFLOW (KAF)295524134571
105TDAO3COLUMBIA-THE DALLES DAM05-10-2021INFLOW (KAF)412595337077
106BONO3COLUMBIA-BONNEVILLE DAM05-10-2021INFLOW (KAF)419075458377
107MCDW1COLUMBIA-MCNARY DAM05-10-2021INFLOW (KAF)400395839669
108JDAO3COLUMBIA-JOHN DAY DAM05-10-2021INFLOW (KAF)410625966969
109BFEI1KOOTENAI-AT BONNERS FERRY05-10-2021STAGE (FT)MMM
110DRMM8CLARK FORK-NR DRUMMOND05-10-2021DISCHARGE (KAF)187MM
111HOPI1PEND OREILLE-PEND OREILLE LAKE NR HOPE05-10-2021LAKE ELEVATION (FT)MMM
112SPOW1SPOKANE-AT SPOKANE05-10-2021DISCHARGE (KAF)962MM
113SJMI1ST JOE-AT ST MARIES05-10-2021STAGE (FT)MMM
114CIBW1COLUMBIA-AT INTL BOUNDARY05-10-2021DISCHARGE (KAF)25137MM
115LUCI1BOISE-LUCKY PEAK DAM05-10-2021INFLOW (KAF)797MM